sensor_id;sensor_type;location;lat;lon;timestamp;P1;P2;P0
30342;PMS5003;17145;49.902;8.680;2023-02-15T00:00:54;54;42;
30342;PMS5003;17145;49.902;8.680;2023-02-15T00:03:26;56;40;
30342;PMS5003;17145;49.902;8.680;2023-02-15T00:05:56;44;40;
30342;PMS5003;17145;49.902;8.680;2023-02-15T00:08:23;49;42;
30342;PMS5003;17145;49.902;8.680;2023-02-15T00:10:51;51;45;
30342;PMS5003;17145;49.902;8.680;2023-02-15T00:13:18;60;41;
30342;PMS5003;17145;49.902;8.680;2023-02-15T00:15:45;48;40;
30342;PMS5003;17145;49.902;8.680;2023-02-15T00:18:13;55;47;
30342;PMS5003;17145;49.902;8.680;2023-02-15T00:20:41;59;42;
30342;PMS5003;17145;49.902;8.680;2023-02-15T00:23:08;54;41;
30342;PMS5003;17145;49.902;8.680;2023-02-15T00:25:35;58;39;
30342;PMS5003;17145;49.902;8.680;2023-02-15T00:28:03;49;42;
30342;PMS5003;17145;49.902;8.680;2023-02-15T00:30:30;60;48;
30342;PMS5003;17145;49.902;8.680;2023-02-15T00:32:58;50;40;
30342;PMS5003;17145;49.902;8.680;2023-02-15T00:35:25;45;39;
30342;PMS5003;17145;49.902;8.680;2023-02-15T00:37:52;50;44;
30342;PMS5003;17145;49.902;8.680;2023-02-15T00:40:20;58;44;
30342;PMS5003;17145;49.902;8.680;2023-02-15T00:42:47;59;43;
30342;PMS5003;17145;49.902;8.680;2023-02-15T00:45:15;49;36;
30342;PMS5003;17145;49.902;8.680;2023-02-15T00:47:42;55;45;
30342;PMS5003;17145;49.902;8.680;2023-02-15T00:50:10;51;40;
30342;PMS5003;17145;49.902;8.680;2023-02-15T00:52:37;46;39;
30342;PMS5003;17145;49.902;8.680;2023-02-15T00:55:05;55;41;
30342;PMS5003;17145;49.902;8.680;2023-02-15T00:57:33;52;40;
30342;PMS5003;17145;49.902;8.680;2023-02-15T01:00:00;48;39;
30342;PMS5003;17145;49.902;8.680;2023-02-15T01:02:28;40;33;
30342;PMS5003;17145;49.902;8.680;2023-02-15T01:04:55;51;44;
30342;PMS5003;17145;49.902;8.680;2023-02-15T01:07:22;39;34;
30342;PMS5003;17145;49.902;8.680;2023-02-15T01:09:50;46;39;
30342;PMS5003;17145;49.902;8.680;2023-02-15T01:12:17;41;34;
30342;PMS5003;17145;49.902;8.680;2023-02-15T01:14:44;41;36;
30342;PMS5003;17145;49.902;8.680;2023-02-15T01:17:12;40;33;
30342;PMS5003;17145;49.902;8.680;2023-02-15T01:19:39;24;21;
30342;PMS5003;17145;49.902;8.680;2023-02-15T01:22:07;31;24;
30342;PMS5003;17145;49.902;8.680;2023-02-15T01:24:34;24;24;
30342;PMS5003;17145;49.902;8.680;2023-02-15T01:27:02;24;24;
30342;PMS5003;17145;49.902;8.680;2023-02-15T01:29:29;27;21;
30342;PMS5003;17145;49.902;8.680;2023-02-15T01:31:56;31;24;
30342;PMS5003;17145;49.902;8.680;2023-02-15T01:34:24;42;39;
30342;PMS5003;17145;49.902;8.680;2023-02-15T01:36:51;32;27;
30342;PMS5003;17145;49.902;8.680;2023-02-15T01:39:19;46;33;
30342;PMS5003;17145;49.902;8.680;2023-02-15T01:41:46;56;42;
30342;PMS5003;17145;49.902;8.680;2023-02-15T01:46:52;39;32;
30342;PMS5003;17145;49.902;8.680;2023-02-15T01:49:21;41;34;
30342;PMS5003;17145;49.902;8.680;2023-02-15T01:51:53;49;35;
30342;PMS5003;17145;49.902;8.680;2023-02-15T01:54:22;52;39;
30342;PMS5003;17145;49.902;8.680;2023-02-15T01:56:54;53;40;
30342;PMS5003;17145;49.902;8.680;2023-02-15T01:59:24;49;44;
30342;PMS5003;17145;49.902;8.680;2023-02-15T02:01:53;54;44;
30342;PMS5003;17145;49.902;8.680;2023-02-15T02:04:26;51;37;
30342;PMS5003;17145;49.902;8.680;2023-02-15T02:07:00;37;34;
30342;PMS5003;17145;49.902;8.680;2023-02-15T02:09:30;60;47;
30342;PMS5003;17145;49.902;8.680;2023-02-15T02:11:58;45;35;
30342;PMS5003;17145;49.902;8.680;2023-02-15T02:14:27;46;40;
30342;PMS5003;17145;49.902;8.680;2023-02-15T02:16:56;41;36;
30342;PMS5003;17145;49.902;8.680;2023-02-15T02:22:08;39;35;
30342;PMS5003;17145;49.902;8.680;2023-02-15T02:24:50;42;31;
30342;PMS5003;17145;49.902;8.680;2023-02-15T02:27:32;33;29;
30342;PMS5003;17145;49.902;8.680;2023-02-15T02:32:56;30;29;
30342;PMS5003;17145;49.902;8.680;2023-02-15T02:35:37;33;28;
30342;PMS5003;17145;49.902;8.680;2023-02-15T02:38:11;31;30;
30342;PMS5003;17145;49.902;8.680;2023-02-15T02:40:48;39;32;
30342;PMS5003;17145;49.902;8.680;2023-02-15T02:43:25;35;30;
30342;PMS5003;17145;49.902;8.680;2023-02-15T02:46:00;37;28;
30342;PMS5003;17145;49.902;8.680;2023-02-15T02:48:33;30;26;
30342;PMS5003;17145;49.902;8.680;2023-02-15T02:51:01;33;31;
30342;PMS5003;17145;49.902;8.680;2023-02-15T02:53:29;33;30;
30342;PMS5003;17145;49.902;8.680;2023-02-15T02:56:02;44;32;
30342;PMS5003;17145;49.902;8.680;2023-02-15T02:58:37;38;32;
30342;PMS5003;17145;49.902;8.680;2023-02-15T03:01:10;35;29;
30342;PMS5003;17145;49.902;8.680;2023-02-15T03:03:45;31;30;
30342;PMS5003;17145;49.902;8.680;2023-02-15T03:06:17;38;37;
30342;PMS5003;17145;49.902;8.680;2023-02-15T03:08:50;30;28;
30342;PMS5003;17145;49.902;8.680;2023-02-15T03:11:25;35;33;
30342;PMS5003;17145;49.902;8.680;2023-02-15T03:13:52;43;34;
30342;PMS5003;17145;49.902;8.680;2023-02-15T03:16:19;31;30;
30342;PMS5003;17145;49.902;8.680;2023-02-15T03:18:48;35;31;
30342;PMS5003;17145;49.902;8.680;2023-02-15T03:21:19;39;29;
30342;PMS5003;17145;49.902;8.680;2023-02-15T03:23:52;41;29;
30342;PMS5003;17145;49.902;8.680;2023-02-15T03:26:24;36;31;
30342;PMS5003;17145;49.902;8.680;2023-02-15T03:28:53;39;32;
30342;PMS5003;17145;49.902;8.680;2023-02-15T03:31:26;43;34;
30342;PMS5003;17145;49.902;8.680;2023-02-15T03:33:58;34;28;
30342;PMS5003;17145;49.902;8.680;2023-02-15T03:36:30;39;34;
30342;PMS5003;17145;49.902;8.680;2023-02-15T03:39:07;42;32;
30342;PMS5003;17145;49.902;8.680;2023-02-15T03:41:41;47;35;
30342;PMS5003;17145;49.902;8.680;2023-02-15T03:44:14;41;31;
30342;PMS5003;17145;49.902;8.680;2023-02-15T03:46:45;36;33;
30342;PMS5003;17145;49.902;8.680;2023-02-15T03:49:20;45;35;
30342;PMS5003;17145;49.902;8.680;2023-02-15T03:51:50;39;36;
30342;PMS5003;17145;49.902;8.680;2023-02-15T03:54:24;43;30;
30342;PMS5003;17145;49.902;8.680;2023-02-15T03:56:54;35;30;
30342;PMS5003;17145;49.902;8.680;2023-02-15T03:59:21;40;37;
30342;PMS5003;17145;49.902;8.680;2023-02-15T04:01:52;42;39;
30342;PMS5003;17145;49.902;8.680;2023-02-15T04:04:31;42;40;
30342;PMS5003;17145;49.902;8.680;2023-02-15T04:07:01;46;35;
30342;PMS5003;17145;49.902;8.680;2023-02-15T04:09:30;47;37;
30342;PMS5003;17145;49.902;8.680;2023-02-15T04:11:58;53;42;
30342;PMS5003;17145;49.902;8.680;2023-02-15T04:14:25;51;37;
30342;PMS5003;17145;49.902;8.680;2023-02-15T04:16:52;47;38;
30342;PMS5003;17145;49.902;8.680;2023-02-15T04:19:20;47;41;
30342;PMS5003;17145;49.902;8.680;2023-02-15T04:21:47;39;36;
30342;PMS5003;17145;49.902;8.680;2023-02-15T04:24:15;60;46;
30342;PMS5003;17145;49.902;8.680;2023-02-15T04:26:43;44;41;
30342;PMS5003;17145;49.902;8.680;2023-02-15T04:29:10;57;41;
30342;PMS5003;17145;49.902;8.680;2023-02-15T04:31:38;46;40;
30342;PMS5003;17145;49.902;8.680;2023-02-15T04:34:05;50;35;
30342;PMS5003;17145;49.902;8.680;2023-02-15T04:36:33;39;36;
30342;PMS5003;17145;49.902;8.680;2023-02-15T04:39:00;51;42;
30342;PMS5003;17145;49.902;8.680;2023-02-15T04:41:27;35;34;
30342;PMS5003;17145;49.902;8.680;2023-02-15T04:43:54;47;37;
30342;PMS5003;17145;49.902;8.680;2023-02-15T04:46:22;44;34;
30342;PMS5003;17145;49.902;8.680;2023-02-15T04:48:49;40;35;
30342;PMS5003;17145;49.902;8.680;2023-02-15T04:51:17;45;37;
30342;PMS5003;17145;49.902;8.680;2023-02-15T04:53:44;47;40;
30342;PMS5003;17145;49.902;8.680;2023-02-15T04:56:12;47;39;
30342;PMS5003;17145;49.902;8.680;2023-02-15T04:58:40;79;75;
30342;PMS5003;17145;49.902;8.680;2023-02-15T05:01:07;44;40;
30342;PMS5003;17145;49.902;8.680;2023-02-15T05:03:35;45;34;
30342;PMS5003;17145;49.902;8.680;2023-02-15T05:06:03;72;60;
30342;PMS5003;17145;49.902;8.680;2023-02-15T05:08:30;50;44;
30342;PMS5003;17145;49.902;8.680;2023-02-15T05:10:58;45;36;
30342;PMS5003;17145;49.902;8.680;2023-02-15T05:13:26;47;39;
30342;PMS5003;17145;49.902;8.680;2023-02-15T05:15:53;33;31;
30342;PMS5003;17145;49.902;8.680;2023-02-15T05:18:21;81;66;
30342;PMS5003;17145;49.902;8.680;2023-02-15T05:20:48;27;25;
30342;PMS5003;17145;49.902;8.680;2023-02-15T05:23:16;29;25;
30342;PMS5003;17145;49.902;8.680;2023-02-15T05:25:46;43;33;
30342;PMS5003;17145;49.902;8.680;2023-02-15T05:28:14;29;26;
30342;PMS5003;17145;49.902;8.680;2023-02-15T05:30:42;30;29;
30342;PMS5003;17145;49.902;8.680;2023-02-15T05:33:09;34;28;
30342;PMS5003;17145;49.902;8.680;2023-02-15T05:35:37;40;29;
30342;PMS5003;17145;49.902;8.680;2023-02-15T05:38:04;35;30;
30342;PMS5003;17145;49.902;8.680;2023-02-15T05:40:31;28;27;
30342;PMS5003;17145;49.902;8.680;2023-02-15T05:42:59;26;26;
30342;PMS5003;17145;49.902;8.680;2023-02-15T05:45:26;32;31;
30342;PMS5003;17145;49.902;8.680;2023-02-15T05:47:54;34;29;
30342;PMS5003;17145;49.902;8.680;2023-02-15T05:50:21;35;31;
30342;PMS5003;17145;49.902;8.680;2023-02-15T05:52:48;36;30;
30342;PMS5003;17145;49.902;8.680;2023-02-15T05:55:16;33;30;
30342;PMS5003;17145;49.902;8.680;2023-02-15T05:57:43;31;28;
30342;PMS5003;17145;49.902;8.680;2023-02-15T06:00:12;36;32;
30342;PMS5003;17145;49.902;8.680;2023-02-15T06:02:40;28;26;
30342;PMS5003;17145;49.902;8.680;2023-02-15T06:05:07;31;28;
30342;PMS5003;17145;49.902;8.680;2023-02-15T06:07:35;26;22;
30342;PMS5003;17145;49.902;8.680;2023-02-15T06:10:03;36;31;
30342;PMS5003;17145;49.902;8.680;2023-02-15T06:12:31;36;32;
30342;PMS5003;17145;49.902;8.680;2023-02-15T06:14:59;32;31;
30342;PMS5003;17145;49.902;8.680;2023-02-15T06:17:26;32;31;
30342;PMS5003;17145;49.902;8.680;2023-02-15T06:19:54;30;27;
30342;PMS5003;17145;49.902;8.680;2023-02-15T06:22:21;38;27;
30342;PMS5003;17145;49.902;8.680;2023-02-15T06:24:48;41;29;
30342;PMS5003;17145;49.902;8.680;2023-02-15T06:27:16;32;27;
30342;PMS5003;17145;49.902;8.680;2023-02-15T06:29:43;38;25;
30342;PMS5003;17145;49.902;8.680;2023-02-15T06:32:11;27;26;
30342;PMS5003;17145;49.902;8.680;2023-02-15T06:34:38;30;27;
30342;PMS5003;17145;49.902;8.680;2023-02-15T06:37:05;33;31;
30342;PMS5003;17145;49.902;8.680;2023-02-15T06:39:33;41;29;
30342;PMS5003;17145;49.902;8.680;2023-02-15T06:42:01;38;28;
30342;PMS5003;17145;49.902;8.680;2023-02-15T06:44:28;32;27;
30342;PMS5003;17145;49.902;8.680;2023-02-15T06:46:55;31;27;
30342;PMS5003;17145;49.902;8.680;2023-02-15T06:49:23;30;28;
30342;PMS5003;17145;49.902;8.680;2023-02-15T06:51:50;39;26;
30342;PMS5003;17145;49.902;8.680;2023-02-15T06:54:18;37;30;
30342;PMS5003;17145;49.902;8.680;2023-02-15T06:56:45;32;28;
30342;PMS5003;17145;49.902;8.680;2023-02-15T06:59:13;42;30;
30342;PMS5003;17145;49.902;8.680;2023-02-15T07:01:40;39;34;
30342;PMS5003;17145;49.902;8.680;2023-02-15T07:04:08;30;25;
30342;PMS5003;17145;49.902;8.680;2023-02-15T07:06:35;30;27;
30342;PMS5003;17145;49.902;8.680;2023-02-15T07:09:03;26;24;
30342;PMS5003;17145;49.902;8.680;2023-02-15T07:11:31;34;28;
30342;PMS5003;17145;49.902;8.680;2023-02-15T07:13:58;32;28;
30342;PMS5003;17145;49.902;8.680;2023-02-15T07:16:26;30;27;
30342;PMS5003;17145;49.902;8.680;2023-02-15T07:18:53;28;28;
30342;PMS5003;17145;49.902;8.680;2023-02-15T07:21:20;43;30;
30342;PMS5003;17145;49.902;8.680;2023-02-15T07:23:48;39;30;
30342;PMS5003;17145;49.902;8.680;2023-02-15T07:26:15;35;27;
30342;PMS5003;17145;49.902;8.680;2023-02-15T07:28:42;37;33;
30342;PMS5003;17145;49.902;8.680;2023-02-15T07:31:10;31;28;
30342;PMS5003;17145;49.902;8.680;2023-02-15T07:33:37;32;31;
30342;PMS5003;17145;49.902;8.680;2023-02-15T07:36:05;32;26;
30342;PMS5003;17145;49.902;8.680;2023-02-15T07:38:34;38;29;
30342;PMS5003;17145;49.902;8.680;2023-02-15T07:41:03;37;32;
30342;PMS5003;17145;49.902;8.680;2023-02-15T07:43:32;44;35;
30342;PMS5003;17145;49.902;8.680;2023-02-15T07:46:02;36;30;
30342;PMS5003;17145;49.902;8.680;2023-02-15T07:48:31;32;27;
30342;PMS5003;17145;49.902;8.680;2023-02-15T07:50:58;29;27;
30342;PMS5003;17145;49.902;8.680;2023-02-15T07:53:26;35;31;
30342;PMS5003;17145;49.902;8.680;2023-02-15T07:55:54;41;33;
30342;PMS5003;17145;49.902;8.680;2023-02-15T07:58:24;38;32;
30342;PMS5003;17145;49.902;8.680;2023-02-15T08:00:52;34;31;
30342;PMS5003;17145;49.902;8.680;2023-02-15T08:03:22;34;31;
30342;PMS5003;17145;49.902;8.680;2023-02-15T08:05:50;37;36;
30342;PMS5003;17145;49.902;8.680;2023-02-15T08:08:17;34;30;
30342;PMS5003;17145;49.902;8.680;2023-02-15T08:10:45;42;29;
30342;PMS5003;17145;49.902;8.680;2023-02-15T08:13:12;31;27;
30342;PMS5003;17145;49.902;8.680;2023-02-15T08:15:40;32;27;
30342;PMS5003;17145;49.902;8.680;2023-02-15T08:18:14;27;25;
30342;PMS5003;17145;49.902;8.680;2023-02-15T08:20:42;35;27;
30342;PMS5003;17145;49.902;8.680;2023-02-15T08:23:14;36;27;
30342;PMS5003;17145;49.902;8.680;2023-02-15T08:25:42;43;33;
30342;PMS5003;17145;49.902;8.680;2023-02-15T08:28:09;44;34;
30342;PMS5003;17145;49.902;8.680;2023-02-15T08:30:37;39;26;
30342;PMS5003;17145;49.902;8.680;2023-02-15T08:33:04;27;26;
30342;PMS5003;17145;49.902;8.680;2023-02-15T08:35:32;40;30;
30342;PMS5003;17145;49.902;8.680;2023-02-15T08:38:00;33;27;
30342;PMS5003;17145;49.902;8.680;2023-02-15T08:40:27;39;32;
30342;PMS5003;17145;49.902;8.680;2023-02-15T08:42:55;33;28;
30342;PMS5003;17145;49.902;8.680;2023-02-15T08:45:22;40;32;
30342;PMS5003;17145;49.902;8.680;2023-02-15T08:47:50;40;28;
30342;PMS5003;17145;49.902;8.680;2023-02-15T08:50:17;34;29;
30342;PMS5003;17145;49.902;8.680;2023-02-15T08:52:45;38;31;
30342;PMS5003;17145;49.902;8.680;2023-02-15T08:55:12;28;26;
30342;PMS5003;17145;49.902;8.680;2023-02-15T08:57:39;31;22;
30342;PMS5003;17145;49.902;8.680;2023-02-15T09:00:08;31;26;
30342;PMS5003;17145;49.902;8.680;2023-02-15T09:02:36;28;26;
30342;PMS5003;17145;49.902;8.680;2023-02-15T09:05:03;31;26;
30342;PMS5003;17145;49.902;8.680;2023-02-15T09:07:31;25;21;
30342;PMS5003;17145;49.902;8.680;2023-02-15T09:09:58;26;22;
30342;PMS5003;17145;49.902;8.680;2023-02-15T09:12:25;26;22;
30342;PMS5003;17145;49.902;8.680;2023-02-15T09:14:53;19;19;
30342;PMS5003;17145;49.902;8.680;2023-02-15T09:17:21;20;19;
30342;PMS5003;17145;49.902;8.680;2023-02-15T09:19:48;19;17;
30342;PMS5003;17145;49.902;8.680;2023-02-15T09:22:16;24;21;
30342;PMS5003;17145;49.902;8.680;2023-02-15T09:24:43;18;16;
30342;PMS5003;17145;49.902;8.680;2023-02-15T09:27:11;21;19;
30342;PMS5003;17145;49.902;8.680;2023-02-15T09:29:38;19;19;
30342;PMS5003;17145;49.902;8.680;2023-02-15T09:32:05;21;16;
30342;PMS5003;17145;49.902;8.680;2023-02-15T09:34:33;31;24;
30342;PMS5003;17145;49.902;8.680;2023-02-15T09:37:01;20;19;
30342;PMS5003;17145;49.902;8.680;2023-02-15T09:39:28;27;20;
30342;PMS5003;17145;49.902;8.680;2023-02-15T09:44:50;22;21;
30342;PMS5003;17145;49.902;8.680;2023-02-15T09:47:34;24;21;
30342;PMS5003;17145;49.902;8.680;2023-02-15T09:50:15;21;20;
30342;PMS5003;17145;49.902;8.680;2023-02-15T09:52:54;20;18;
30342;PMS5003;17145;49.902;8.680;2023-02-15T09:55:36;21;20;
30342;PMS5003;17145;49.902;8.680;2023-02-15T09:58:12;21;20;
30342;PMS5003;17145;49.902;8.680;2023-02-15T10:00:50;18;18;
30342;PMS5003;17145;49.902;8.680;2023-02-15T10:03:29;24;19;
30342;PMS5003;17145;49.902;8.680;2023-02-15T10:06:11;20;20;
30342;PMS5003;17145;49.902;8.680;2023-02-15T10:09:02;19;18;
30342;PMS5003;17145;49.902;8.680;2023-02-15T10:11:41;26;22;
30342;PMS5003;17145;49.902;8.680;2023-02-15T10:14:28;22;19;
30342;PMS5003;17145;49.902;8.680;2023-02-15T10:17:10;24;20;
30342;PMS5003;17145;49.902;8.680;2023-02-15T10:19:49;30;22;
30342;PMS5003;17145;49.902;8.680;2023-02-15T10:22:28;19;18;
30342;PMS5003;17145;49.902;8.680;2023-02-15T10:25:07;22;18;
30342;PMS5003;17145;49.902;8.680;2023-02-15T10:27:47;25;24;
30342;PMS5003;17145;49.902;8.680;2023-02-15T10:30:15;19;18;
30342;PMS5003;17145;49.902;8.680;2023-02-15T10:32:51;30;20;
30342;PMS5003;17145;49.902;8.680;2023-02-15T10:35:26;19;17;
30342;PMS5003;17145;49.902;8.680;2023-02-15T10:38:05;20;19;
30342;PMS5003;17145;49.902;8.680;2023-02-15T10:40:45;21;20;
30342;PMS5003;17145;49.902;8.680;2023-02-15T10:43:26;21;20;
30342;PMS5003;17145;49.902;8.680;2023-02-15T10:46:06;19;18;
30342;PMS5003;17145;49.902;8.680;2023-02-15T10:48:45;22;21;
30342;PMS5003;17145;49.902;8.680;2023-02-15T10:51:26;31;20;
30342;PMS5003;17145;49.902;8.680;2023-02-15T10:54:05;28;21;
30342;PMS5003;17145;49.902;8.680;2023-02-15T10:56:43;22;21;
30342;PMS5003;17145;49.902;8.680;2023-02-15T10:59:22;19;18;
30342;PMS5003;17145;49.902;8.680;2023-02-15T11:01:59;16;16;
30342;PMS5003;17145;49.902;8.680;2023-02-15T11:04:41;19;16;
30342;PMS5003;17145;49.902;8.680;2023-02-15T11:07:17;18;16;
30342;PMS5003;17145;49.902;8.680;2023-02-15T11:09:50;26;19;
30342;PMS5003;17145;49.902;8.680;2023-02-15T11:12:23;21;19;
30342;PMS5003;17145;49.902;8.680;2023-02-15T11:14:56;19;18;
30342;PMS5003;17145;49.902;8.680;2023-02-15T11:17:30;22;19;
30342;PMS5003;17145;49.902;8.680;2023-02-15T11:20:06;21;18;
30342;PMS5003;17145;49.902;8.680;2023-02-15T11:22:41;33;24;
30342;PMS5003;17145;49.902;8.680;2023-02-15T11:27:44;20;20;
30342;PMS5003;17145;49.902;8.680;2023-02-15T11:30:15;23;19;
30342;PMS5003;17145;49.902;8.680;2023-02-15T11:32:47;24;20;
30342;PMS5003;17145;49.902;8.680;2023-02-15T11:35:19;18;15;
30342;PMS5003;17145;49.902;8.680;2023-02-15T11:37:53;20;19;
30342;PMS5003;17145;49.902;8.680;2023-02-15T11:40:26;21;17;
30342;PMS5003;17145;49.902;8.680;2023-02-15T11:42:57;23;19;
30342;PMS5003;17145;49.902;8.680;2023-02-15T11:45:30;23;21;
30342;PMS5003;17145;49.902;8.680;2023-02-15T11:47:59;23;20;
30342;PMS5003;17145;49.902;8.680;2023-02-15T11:50:27;20;19;
30342;PMS5003;17145;49.902;8.680;2023-02-15T11:52:59;19;18;
30342;PMS5003;17145;49.902;8.680;2023-02-15T11:55:29;18;18;
30342;PMS5003;17145;49.902;8.680;2023-02-15T11:57:59;24;19;
30342;PMS5003;17145;49.902;8.680;2023-02-15T12:00:32;19;19;
30342;PMS5003;17145;49.902;8.680;2023-02-15T12:03:08;21;19;
30342;PMS5003;17145;49.902;8.680;2023-02-15T12:05:42;20;18;
30342;PMS5003;17145;49.902;8.680;2023-02-15T12:08:15;18;17;
30342;PMS5003;17145;49.902;8.680;2023-02-15T12:10:52;20;19;
30342;PMS5003;17145;49.902;8.680;2023-02-15T12:13:24;22;18;
30342;PMS5003;17145;49.902;8.680;2023-02-15T12:15:52;19;17;
30342;PMS5003;17145;49.902;8.680;2023-02-15T12:18:31;24;19;
30342;PMS5003;17145;49.902;8.680;2023-02-15T12:21:03;17;15;
30342;PMS5003;17145;49.902;8.680;2023-02-15T12:23:34;24;22;
30342;PMS5003;17145;49.902;8.680;2023-02-15T12:26:10;24;19;
30342;PMS5003;17145;49.902;8.680;2023-02-15T12:28:38;22;18;
30342;PMS5003;17145;49.902;8.680;2023-02-15T12:31:10;23;19;
30342;PMS5003;17145;49.902;8.680;2023-02-15T12:33:47;18;17;
30342;PMS5003;17145;49.902;8.680;2023-02-15T12:36:20;18;18;
30342;PMS5003;17145;49.902;8.680;2023-02-15T12:41:30;31;28;
30342;PMS5003;17145;49.902;8.680;2023-02-15T12:44:04;22;19;
30342;PMS5003;17145;49.902;8.680;2023-02-15T12:46:33;34;24;
30342;PMS5003;17145;49.902;8.680;2023-02-15T12:49:07;27;21;
30342;PMS5003;17145;49.902;8.680;2023-02-15T12:51:43;23;21;
30342;PMS5003;17145;49.902;8.680;2023-02-15T12:54:21;33;26;
30342;PMS5003;17145;49.902;8.680;2023-02-15T12:56:55;25;21;
30342;PMS5003;17145;49.902;8.680;2023-02-15T12:59:22;20;20;
30342;PMS5003;17145;49.902;8.680;2023-02-15T13:01:51;33;22;
30342;PMS5003;17145;49.902;8.680;2023-02-15T13:04:21;22;18;
30342;PMS5003;17145;49.902;8.680;2023-02-15T13:06:51;23;22;
30342;PMS5003;17145;49.902;8.680;2023-02-15T13:09:23;32;21;
30342;PMS5003;17145;49.902;8.680;2023-02-15T13:11:57;26;23;
30342;PMS5003;17145;49.902;8.680;2023-02-15T13:14:37;25;22;
30342;PMS5003;17145;49.902;8.680;2023-02-15T13:17:09;27;25;
30342;PMS5003;17145;49.902;8.680;2023-02-15T13:19:40;21;18;
30342;PMS5003;17145;49.902;8.680;2023-02-15T13:22:13;28;25;
30342;PMS5003;17145;49.902;8.680;2023-02-15T13:24:44;23;21;
30342;PMS5003;17145;49.902;8.680;2023-02-15T13:27:15;27;22;
30342;PMS5003;17145;49.902;8.680;2023-02-15T13:29:46;21;21;
30342;PMS5003;17145;49.902;8.680;2023-02-15T13:32:22;37;29;
30342;PMS5003;17145;49.902;8.680;2023-02-15T13:34:56;26;23;
30342;PMS5003;17145;49.902;8.680;2023-02-15T13:37:32;37;24;
30342;PMS5003;17145;49.902;8.680;2023-02-15T13:40:11;28;26;
30342;PMS5003;17145;49.902;8.680;2023-02-15T13:42:43;28;23;
30342;PMS5003;17145;49.902;8.680;2023-02-15T13:45:24;26;22;
30342;PMS5003;17145;49.902;8.680;2023-02-15T13:48:00;27;23;
30342;PMS5003;17145;49.902;8.680;2023-02-15T13:50:38;32;24;
30342;PMS5003;17145;49.902;8.680;2023-02-15T13:53:22;31;26;
30342;PMS5003;17145;49.902;8.680;2023-02-15T13:56:02;33;26;
30342;PMS5003;17145;49.902;8.680;2023-02-15T13:58:43;38;26;
30342;PMS5003;17145;49.902;8.680;2023-02-15T14:01:27;26;23;
30342;PMS5003;17145;49.902;8.680;2023-02-15T14:04:07;29;28;
30342;PMS5003;17145;49.902;8.680;2023-02-15T14:06:47;41;28;
30342;PMS5003;17145;49.902;8.680;2023-02-15T14:09:26;32;29;
30342;PMS5003;17145;49.902;8.680;2023-02-15T14:12:08;33;26;
30342;PMS5003;17145;49.902;8.680;2023-02-15T14:14:52;36;27;
30342;PMS5003;17145;49.902;8.680;2023-02-15T14:17:35;38;28;
30342;PMS5003;17145;49.902;8.680;2023-02-15T14:20:15;32;22;
30342;PMS5003;17145;49.902;8.680;2023-02-15T14:22:52;35;30;
30342;PMS5003;17145;49.902;8.680;2023-02-15T14:25:28;31;28;
30342;PMS5003;17145;49.902;8.680;2023-02-15T14:28:03;27;26;
30342;PMS5003;17145;49.902;8.680;2023-02-15T14:30:37;31;25;
30342;PMS5003;17145;49.902;8.680;2023-02-15T14:33:07;30;29;
30342;PMS5003;17145;49.902;8.680;2023-02-15T14:35:39;34;26;
30342;PMS5003;17145;49.902;8.680;2023-02-15T14:38:11;43;30;
30342;PMS5003;17145;49.902;8.680;2023-02-15T14:40:47;29;27;
30342;PMS5003;17145;49.902;8.680;2023-02-15T14:43:24;32;27;
30342;PMS5003;17145;49.902;8.680;2023-02-15T14:46:00;32;27;
30342;PMS5003;17145;49.902;8.680;2023-02-15T14:48:37;30;26;
30342;PMS5003;17145;49.902;8.680;2023-02-15T14:51:09;29;26;
30342;PMS5003;17145;49.902;8.680;2023-02-15T14:53:37;29;28;
30342;PMS5003;17145;49.902;8.680;2023-02-15T15:01:27;35;28;
30342;PMS5003;17145;49.902;8.680;2023-02-15T15:03:58;25;23;
30342;PMS5003;17145;49.902;8.680;2023-02-15T15:06:31;29;23;
30342;PMS5003;17145;49.902;8.680;2023-02-15T15:09:05;43;28;
30342;PMS5003;17145;49.902;8.680;2023-02-15T15:11:39;32;29;
30342;PMS5003;17145;49.902;8.680;2023-02-15T15:14:09;24;23;
30342;PMS5003;17145;49.902;8.680;2023-02-15T15:22:02;24;24;
30342;PMS5003;17145;49.902;8.680;2023-02-15T15:30:00;32;25;
30342;PMS5003;17145;49.902;8.680;2023-02-15T15:32:27;27;23;
30342;PMS5003;17145;49.902;8.680;2023-02-15T15:35:04;23;20;
30342;PMS5003;17145;49.902;8.680;2023-02-15T15:37:52;23;22;
30342;PMS5003;17145;49.902;8.680;2023-02-15T15:40:38;31;25;
30342;PMS5003;17145;49.902;8.680;2023-02-15T15:43:15;27;23;
30342;PMS5003;17145;49.902;8.680;2023-02-15T15:45:58;32;24;
30342;PMS5003;17145;49.902;8.680;2023-02-15T15:48:37;29;25;
30342;PMS5003;17145;49.902;8.680;2023-02-15T15:51:10;26;23;
30342;PMS5003;17145;49.902;8.680;2023-02-15T15:53:42;28;26;
30342;PMS5003;17145;49.902;8.680;2023-02-15T15:56:13;39;31;
30342;PMS5003;17145;49.902;8.680;2023-02-15T15:58:46;31;28;
30342;PMS5003;17145;49.902;8.680;2023-02-15T16:03:53;34;24;
30342;PMS5003;17145;49.902;8.680;2023-02-15T16:06:28;30;22;
30342;PMS5003;17145;49.902;8.680;2023-02-15T16:11:39;28;23;
30342;PMS5003;17145;49.902;8.680;2023-02-15T16:14:11;41;27;
30342;PMS5003;17145;49.902;8.680;2023-02-15T16:16:40;34;30;
30342;PMS5003;17145;49.902;8.680;2023-02-15T16:19:16;36;31;
30342;PMS5003;17145;49.902;8.680;2023-02-15T16:21:48;23;23;
30342;PMS5003;17145;49.902;8.680;2023-02-15T16:24:24;30;24;
30342;PMS5003;17145;49.902;8.680;2023-02-15T16:27:05;23;22;
30342;PMS5003;17145;49.902;8.680;2023-02-15T16:29:46;30;24;
30342;PMS5003;17145;49.902;8.680;2023-02-15T16:32:16;36;27;
30342;PMS5003;17145;49.902;8.680;2023-02-15T16:34:51;28;26;
30342;PMS5003;17145;49.902;8.680;2023-02-15T16:37:22;25;22;
30342;PMS5003;17145;49.902;8.680;2023-02-15T16:39:50;39;25;
30342;PMS5003;17145;49.902;8.680;2023-02-15T16:42:18;30;24;
30342;PMS5003;17145;49.902;8.680;2023-02-15T16:44:46;27;25;
30342;PMS5003;17145;49.902;8.680;2023-02-15T16:47:17;33;25;
30342;PMS5003;17145;49.902;8.680;2023-02-15T16:49:48;30;26;
30342;PMS5003;17145;49.902;8.680;2023-02-15T16:52:19;30;23;
30342;PMS5003;17145;49.902;8.680;2023-02-15T16:54:50;30;22;
30342;PMS5003;17145;49.902;8.680;2023-02-15T16:57:23;31;23;
30342;PMS5003;17145;49.902;8.680;2023-02-15T16:59:53;30;23;
30342;PMS5003;17145;49.902;8.680;2023-02-15T17:02:25;35;26;
30342;PMS5003;17145;49.902;8.680;2023-02-15T17:05:01;31;23;
30342;PMS5003;17145;49.902;8.680;2023-02-15T17:07:38;29;23;
30342;PMS5003;17145;49.902;8.680;2023-02-15T17:12:44;39;26;
30342;PMS5003;17145;49.902;8.680;2023-02-15T17:17:55;38;33;
30342;PMS5003;17145;49.902;8.680;2023-02-15T17:20:25;30;26;
30342;PMS5003;17145;49.902;8.680;2023-02-15T17:22:54;28;24;
30342;PMS5003;17145;49.902;8.680;2023-02-15T17:25:24;33;30;
30342;PMS5003;17145;49.902;8.680;2023-02-15T17:27:55;41;33;